sensor_id;sensor_type;location;lat;lon;timestamp;temperature;humidity
8965;DHT22;4517;49.020;12.066;2023-03-01T00:01:22;-0.30;99.90
8965;DHT22;4517;49.020;12.066;2023-03-01T00:03:48;-0.20;99.90
8965;DHT22;4517;49.020;12.066;2023-03-01T00:06:14;-0.20;99.90
8965;DHT22;4517;49.020;12.066;2023-03-01T00:08:40;-0.20;99.90
8965;DHT22;4517;49.020;12.066;2023-03-01T00:13:45;-0.10;99.90
8965;DHT22;4517;49.020;12.066;2023-03-01T00:16:18;-0.10;99.90
8965;DHT22;4517;49.020;12.066;2023-03-01T00:18:44;0.00;99.90
8965;DHT22;4517;49.020;12.066;2023-03-01T00:21:10;-0.10;99.90
8965;DHT22;4517;49.020;12.066;2023-03-01T00:23:37;0.00;99.90
8965;DHT22;4517;49.020;12.066;2023-03-01T00:26:06;-0.10;99.90
8965;DHT22;4517;49.020;12.066;2023-03-01T00:28:35;-0.20;99.90
8965;DHT22;4517;49.020;12.066;2023-03-01T00:31:11;-0.20;99.90
8965;DHT22;4517;49.020;12.066;2023-03-01T00:33:36;-0.20;99.90
8965;DHT22;4517;49.020;12.066;2023-03-01T00:36:03;-0.20;99.90
8965;DHT22;4517;49.020;12.066;2023-03-01T00:38:29;-0.30;99.90
8965;DHT22;4517;49.020;12.066;2023-03-01T00:40:55;-0.30;99.90
8965;DHT22;4517;49.020;12.066;2023-03-01T00:43:21;-0.30;99.90
8965;DHT22;4517;49.020;12.066;2023-03-01T00:45:46;-0.40;99.90
8965;DHT22;4517;49.020;12.066;2023-03-01T00:48:13;-0.40;99.90
8965;DHT22;4517;49.020;12.066;2023-03-01T00:50:38;-0.40;99.90
8965;DHT22;4517;49.020;12.066;2023-03-01T00:53:04;-0.30;99.90
8965;DHT22;4517;49.020;12.066;2023-03-01T00:55:30;-0.40;99.90
8965;DHT22;4517;49.020;12.066;2023-03-01T00:57:56;-0.20;99.90
8965;DHT22;4517;49.020;12.066;2023-03-01T01:00:22;-0.20;99.90
8965;DHT22;4517;49.020;12.066;2023-03-01T01:02:47;-0.20;99.90
8965;DHT22;4517;49.020;12.066;2023-03-01T01:05:13;-0.20;99.90
8965;DHT22;4517;49.020;12.066;2023-03-01T01:07:39;-0.20;99.90
8965;DHT22;4517;49.020;12.066;2023-03-01T01:10:05;-0.20;99.90
8965;DHT22;4517;49.020;12.066;2023-03-01T01:12:32;-0.20;99.90
8965;DHT22;4517;49.020;12.066;2023-03-01T01:14:57;-0.30;99.90
8965;DHT22;4517;49.020;12.066;2023-03-01T01:17:23;-0.20;99.90
8965;DHT22;4517;49.020;12.066;2023-03-01T01:19:49;-0.30;99.90
8965;DHT22;4517;49.020;12.066;2023-03-01T01:22:14;-0.30;99.90
8965;DHT22;4517;49.020;12.066;2023-03-01T01:24:40;-0.40;99.90
8965;DHT22;4517;49.020;12.066;2023-03-01T01:27:05;-0.40;99.90
8965;DHT22;4517;49.020;12.066;2023-03-01T01:29:32;-0.40;99.90
8965;DHT22;4517;49.020;12.066;2023-03-01T01:31:58;-0.50;99.90
8965;DHT22;4517;49.020;12.066;2023-03-01T01:34:23;-0.60;99.90
8965;DHT22;4517;49.020;12.066;2023-03-01T01:36:51;-0.60;99.90
8965;DHT22;4517;49.020;12.066;2023-03-01T01:39:18;-0.70;99.90
8965;DHT22;4517;49.020;12.066;2023-03-01T01:41:44;-0.70;99.90
8965;DHT22;4517;49.020;12.066;2023-03-01T01:44:16;-0.70;99.90
8965;DHT22;4517;49.020;12.066;2023-03-01T01:46:54;-0.60;99.90
8965;DHT22;4517;49.020;12.066;2023-03-01T01:49:26;-0.70;99.90
8965;DHT22;4517;49.020;12.066;2023-03-01T01:54:54;-0.80;99.90
8965;DHT22;4517;49.020;12.066;2023-03-01T01:57:25;-0.80;99.90
8965;DHT22;4517;49.020;12.066;2023-03-01T01:59:57;-0.90;99.90
8965;DHT22;4517;49.020;12.066;2023-03-01T02:02:24;-1.00;99.90
8965;DHT22;4517;49.020;12.066;2023-03-01T02:04:53;-1.00;99.90
8965;DHT22;4517;49.020;12.066;2023-03-01T02:07:22;-1.10;99.90
8965;DHT22;4517;49.020;12.066;2023-03-01T02:09:50;-1.00;99.90
8965;DHT22;4517;49.020;12.066;2023-03-01T02:12:20;-1.10;99.90
8965;DHT22;4517;49.020;12.066;2023-03-01T02:14:47;-1.30;99.90
8965;DHT22;4517;49.020;12.066;2023-03-01T02:17:15;-1.20;99.90
8965;DHT22;4517;49.020;12.066;2023-03-01T02:20:03;-1.30;99.90
8965;DHT22;4517;49.020;12.066;2023-03-01T02:22:33;-1.30;99.90
8965;DHT22;4517;49.020;12.066;2023-03-01T02:27:56;-1.20;99.90
8965;DHT22;4517;49.020;12.066;2023-03-01T02:30:24;-1.20;99.90
8965;DHT22;4517;49.020;12.066;2023-03-01T02:32:53;-1.20;99.90
8965;DHT22;4517;49.020;12.066;2023-03-01T02:35:21;-1.20;99.90
8965;DHT22;4517;49.020;12.066;2023-03-01T02:37:47;-1.30;99.90
8965;DHT22;4517;49.020;12.066;2023-03-01T02:40:18;-1.30;99.90
8965;DHT22;4517;49.020;12.066;2023-03-01T02:42:53;-1.40;99.90
8965;DHT22;4517;49.020;12.066;2023-03-01T02:45:20;-1.30;99.90
8965;DHT22;4517;49.020;12.066;2023-03-01T02:47:45;-1.30;99.90
8965;DHT22;4517;49.020;12.066;2023-03-01T02:53:41;-1.30;99.90
8965;DHT22;4517;49.020;12.066;2023-03-01T02:56:11;-1.50;99.90
8965;DHT22;4517;49.020;12.066;2023-03-01T02:58:40;-1.50;99.90
8965;DHT22;4517;49.020;12.066;2023-03-01T03:01:11;-1.50;99.90
8965;DHT22;4517;49.020;12.066;2023-03-01T03:03:38;-1.70;99.90
8965;DHT22;4517;49.020;12.066;2023-03-01T03:06:04;-1.60;99.90
8965;DHT22;4517;49.020;12.066;2023-03-01T03:08:30;-1.70;99.90
8965;DHT22;4517;49.020;12.066;2023-03-01T03:10:55;-1.80;99.90
8965;DHT22;4517;49.020;12.066;2023-03-01T03:13:21;-1.70;99.90
8965;DHT22;4517;49.020;12.066;2023-03-01T03:15:47;-1.90;99.90
8965;DHT22;4517;49.020;12.066;2023-03-01T03:18:15;-1.70;99.90
8965;DHT22;4517;49.020;12.066;2023-03-01T03:20:42;-1.80;99.90
8965;DHT22;4517;49.020;12.066;2023-03-01T03:23:09;-2.00;99.90
8965;DHT22;4517;49.020;12.066;2023-03-01T03:25:34;-2.00;99.90
8965;DHT22;4517;49.020;12.066;2023-03-01T03:28:03;-1.90;99.90
8965;DHT22;4517;49.020;12.066;2023-03-01T03:30:36;-1.80;99.90
8965;DHT22;4517;49.020;12.066;2023-03-01T03:33:04;-1.80;99.90
8965;DHT22;4517;49.020;12.066;2023-03-01T03:35:39;-1.90;99.90
8965;DHT22;4517;49.020;12.066;2023-03-01T03:38:07;-1.90;99.90
8965;DHT22;4517;49.020;12.066;2023-03-01T03:40:42;-2.00;99.90
8965;DHT22;4517;49.020;12.066;2023-03-01T03:43:20;-2.20;99.90
8965;DHT22;4517;49.020;12.066;2023-03-01T03:45:48;-2.10;99.90
8965;DHT22;4517;49.020;12.066;2023-03-01T03:48:14;-2.30;99.90
8965;DHT22;4517;49.020;12.066;2023-03-01T03:50:40;-2.40;99.90
8965;DHT22;4517;49.020;12.066;2023-03-01T03:53:09;-2.50;99.90
8965;DHT22;4517;49.020;12.066;2023-03-01T03:55:35;-2.50;99.90
8965;DHT22;4517;49.020;12.066;2023-03-01T03:58:05;-2.50;99.90
8965;DHT22;4517;49.020;12.066;2023-03-01T04:00:37;-2.60;99.90
8965;DHT22;4517;49.020;12.066;2023-03-01T04:03:03;-2.80;99.90
8965;DHT22;4517;49.020;12.066;2023-03-01T04:05:29;-2.50;99.90
8965;DHT22;4517;49.020;12.066;2023-03-01T04:07:55;-2.60;99.90
8965;DHT22;4517;49.020;12.066;2023-03-01T04:10:32;-2.70;99.90
8965;DHT22;4517;49.020;12.066;2023-03-01T04:12:58;-2.80;99.90
8965;DHT22;4517;49.020;12.066;2023-03-01T04:15:24;-2.90;99.90
8965;DHT22;4517;49.020;12.066;2023-03-01T04:17:52;-2.90;99.90
8965;DHT22;4517;49.020;12.066;2023-03-01T04:20:21;-2.90;99.90
8965;DHT22;4517;49.020;12.066;2023-03-01T04:23:03;-2.70;99.90
8965;DHT22;4517;49.020;12.066;2023-03-01T04:25:56;-2.50;99.90
8965;DHT22;4517;49.020;12.066;2023-03-01T04:30:53;-2.50;99.90
8965;DHT22;4517;49.020;12.066;2023-03-01T04:33:19;-2.30;99.90
8965;DHT22;4517;49.020;12.066;2023-03-01T04:35:45;-2.30;99.90
8965;DHT22;4517;49.020;12.066;2023-03-01T04:38:11;-2.20;99.90
8965;DHT22;4517;49.020;12.066;2023-03-01T04:40:37;-2.30;99.90
8965;DHT22;4517;49.020;12.066;2023-03-01T04:43:03;-2.20;99.90
8965;DHT22;4517;49.020;12.066;2023-03-01T04:45:30;-2.20;99.90
8965;DHT22;4517;49.020;12.066;2023-03-01T04:47:56;-2.30;99.90
8965;DHT22;4517;49.020;12.066;2023-03-01T04:50:23;-2.40;99.90
8965;DHT22;4517;49.020;12.066;2023-03-01T04:52:51;-2.20;99.90
8965;DHT22;4517;49.020;12.066;2023-03-01T04:55:17;-2.40;99.90
8965;DHT22;4517;49.020;12.066;2023-03-01T04:57:43;-2.50;99.90
8965;DHT22;4517;49.020;12.066;2023-03-01T05:00:11;-2.50;99.90
8965;DHT22;4517;49.020;12.066;2023-03-01T05:02:54;-2.40;99.90
8965;DHT22;4517;49.020;12.066;2023-03-01T05:05:35;-2.40;99.90
8965;DHT22;4517;49.020;12.066;2023-03-01T05:08:04;-2.40;99.90
8965;DHT22;4517;49.020;12.066;2023-03-01T05:10:32;-2.50;99.90
8965;DHT22;4517;49.020;12.066;2023-03-01T05:12:59;-2.40;99.90
8965;DHT22;4517;49.020;12.066;2023-03-01T05:15:26;-2.60;99.90
8965;DHT22;4517;49.020;12.066;2023-03-01T05:17:54;-2.70;99.90
8965;DHT22;4517;49.020;12.066;2023-03-01T05:20:20;-2.60;99.90
8965;DHT22;4517;49.020;12.066;2023-03-01T05:22:54;-2.50;99.90
8965;DHT22;4517;49.020;12.066;2023-03-01T05:25:19;-2.70;99.90
8965;DHT22;4517;49.020;12.066;2023-03-01T05:27:46;-2.80;99.90
8965;DHT22;4517;49.020;12.066;2023-03-01T05:30:12;-2.80;99.90
8965;DHT22;4517;49.020;12.066;2023-03-01T05:32:43;-2.90;99.90
8965;DHT22;4517;49.020;12.066;2023-03-01T05:35:14;-2.80;99.90
8965;DHT22;4517;49.020;12.066;2023-03-01T05:37:45;-2.80;99.90
8965;DHT22;4517;49.020;12.066;2023-03-01T05:40:12;-2.70;99.90
8965;DHT22;4517;49.020;12.066;2023-03-01T05:43:01;-2.60;99.90
8965;DHT22;4517;49.020;12.066;2023-03-01T05:45:27;-2.50;99.90
8965;DHT22;4517;49.020;12.066;2023-03-01T05:47:53;-2.60;99.90
8965;DHT22;4517;49.020;12.066;2023-03-01T05:50:26;-2.40;99.90
8965;DHT22;4517;49.020;12.066;2023-03-01T05:53:06;-2.50;99.90
8965;DHT22;4517;49.020;12.066;2023-03-01T05:55:34;-2.50;99.90
8965;DHT22;4517;49.020;12.066;2023-03-01T05:58:01;-2.40;99.90
8965;DHT22;4517;49.020;12.066;2023-03-01T06:00:27;-2.50;99.90
8965;DHT22;4517;49.020;12.066;2023-03-01T06:02:54;-2.70;99.90
8965;DHT22;4517;49.020;12.066;2023-03-01T06:05:20;-2.60;99.90
8965;DHT22;4517;49.020;12.066;2023-03-01T06:07:45;-2.60;99.90
8965;DHT22;4517;49.020;12.066;2023-03-01T06:10:12;-2.60;99.90
8965;DHT22;4517;49.020;12.066;2023-03-01T06:12:39;-2.50;99.90
8965;DHT22;4517;49.020;12.066;2023-03-01T06:15:06;-2.60;99.90
8965;DHT22;4517;49.020;12.066;2023-03-01T06:17:35;-2.60;99.90
8965;DHT22;4517;49.020;12.066;2023-03-01T06:20:28;-2.40;99.90
8965;DHT22;4517;49.020;12.066;2023-03-01T06:22:52;-2.10;99.90
8965;DHT22;4517;49.020;12.066;2023-03-01T06:25:20;-2.20;99.90
8965;DHT22;4517;49.020;12.066;2023-03-01T06:27:46;-2.20;99.90
8965;DHT22;4517;49.020;12.066;2023-03-01T06:30:15;-2.10;99.90
8965;DHT22;4517;49.020;12.066;2023-03-01T06:32:41;-2.10;99.90
8965;DHT22;4517;49.020;12.066;2023-03-01T06:35:11;-2.00;99.90
8965;DHT22;4517;49.020;12.066;2023-03-01T06:37:37;-1.90;99.90
8965;DHT22;4517;49.020;12.066;2023-03-01T06:40:07;-1.90;99.90
8965;DHT22;4517;49.020;12.066;2023-03-01T06:42:34;-1.70;99.90
8965;DHT22;4517;49.020;12.066;2023-03-01T06:45:00;-1.70;99.90
8965;DHT22;4517;49.020;12.066;2023-03-01T06:47:25;-1.60;99.90
8965;DHT22;4517;49.020;12.066;2023-03-01T06:49:51;-1.50;99.90
8965;DHT22;4517;49.020;12.066;2023-03-01T06:52:17;-1.40;99.90
8965;DHT22;4517;49.020;12.066;2023-03-01T06:54:42;-1.40;99.90
8965;DHT22;4517;49.020;12.066;2023-03-01T06:57:08;-1.40;99.90
8965;DHT22;4517;49.020;12.066;2023-03-01T06:59:33;-1.30;99.90
8965;DHT22;4517;49.020;12.066;2023-03-01T07:01:59;-1.20;99.90
8965;DHT22;4517;49.020;12.066;2023-03-01T07:04:24;-1.30;99.90
8965;DHT22;4517;49.020;12.066;2023-03-01T07:06:50;-1.20;99.90
8965;DHT22;4517;49.020;12.066;2023-03-01T07:09:21;-1.20;99.90
8965;DHT22;4517;49.020;12.066;2023-03-01T07:11:47;-1.10;99.90
8965;DHT22;4517;49.020;12.066;2023-03-01T07:14:13;-1.00;99.90
8965;DHT22;4517;49.020;12.066;2023-03-01T07:16:39;-0.90;99.90
8965;DHT22;4517;49.020;12.066;2023-03-01T07:19:04;-0.90;99.90
8965;DHT22;4517;49.020;12.066;2023-03-01T07:21:30;-0.90;99.90
8965;DHT22;4517;49.020;12.066;2023-03-01T07:23:56;-0.80;99.90
8965;DHT22;4517;49.020;12.066;2023-03-01T07:26:22;-0.70;99.90
8965;DHT22;4517;49.020;12.066;2023-03-01T07:28:47;-0.60;99.90
8965;DHT22;4517;49.020;12.066;2023-03-01T07:31:13;-0.60;99.90
8965;DHT22;4517;49.020;12.066;2023-03-01T07:33:39;-0.50;99.90
8965;DHT22;4517;49.020;12.066;2023-03-01T07:36:05;-0.40;99.90
8965;DHT22;4517;49.020;12.066;2023-03-01T07:38:31;-0.40;99.90
8965;DHT22;4517;49.020;12.066;2023-03-01T07:40:59;-0.40;99.90
8965;DHT22;4517;49.020;12.066;2023-03-01T07:43:26;-0.30;99.90
8965;DHT22;4517;49.020;12.066;2023-03-01T07:45:52;-0.30;99.90
8965;DHT22;4517;49.020;12.066;2023-03-01T07:48:18;-0.20;99.90
8965;DHT22;4517;49.020;12.066;2023-03-01T07:50:43;-0.10;99.90
8965;DHT22;4517;49.020;12.066;2023-03-01T07:53:09;0.00;99.90
8965;DHT22;4517;49.020;12.066;2023-03-01T07:55:36;0.10;99.90
8965;DHT22;4517;49.020;12.066;2023-03-01T07:58:02;0.10;99.90
8965;DHT22;4517;49.020;12.066;2023-03-01T08:00:27;0.10;99.90
8965;DHT22;4517;49.020;12.066;2023-03-01T08:02:53;0.20;99.90
8965;DHT22;4517;49.020;12.066;2023-03-01T08:05:19;0.30;99.90
8965;DHT22;4517;49.020;12.066;2023-03-01T08:07:44;0.30;99.90
8965;DHT22;4517;49.020;12.066;2023-03-01T08:10:10;0.30;99.90
8965;DHT22;4517;49.020;12.066;2023-03-01T08:12:36;0.40;99.90
8965;DHT22;4517;49.020;12.066;2023-03-01T08:15:02;0.50;99.90
8965;DHT22;4517;49.020;12.066;2023-03-01T08:17:27;0.50;99.90
8965;DHT22;4517;49.020;12.066;2023-03-01T08:19:53;0.60;99.90
8965;DHT22;4517;49.020;12.066;2023-03-01T08:22:18;0.60;99.90
8965;DHT22;4517;49.020;12.066;2023-03-01T08:24:44;0.70;99.90
8965;DHT22;4517;49.020;12.066;2023-03-01T08:27:10;0.90;99.90
8965;DHT22;4517;49.020;12.066;2023-03-01T08:29:37;1.00;99.90
8965;DHT22;4517;49.020;12.066;2023-03-01T08:32:03;1.10;99.90
8965;DHT22;4517;49.020;12.066;2023-03-01T08:34:29;1.20;99.90
8965;DHT22;4517;49.020;12.066;2023-03-01T08:36:58;1.30;99.90
8965;DHT22;4517;49.020;12.066;2023-03-01T08:39:24;1.40;99.90
8965;DHT22;4517;49.020;12.066;2023-03-01T08:41:50;1.30;99.90
8965;DHT22;4517;49.020;12.066;2023-03-01T08:44:16;1.30;99.90
8965;DHT22;4517;49.020;12.066;2023-03-01T08:46:46;1.40;99.90
8965;DHT22;4517;49.020;12.066;2023-03-01T08:49:15;1.40;99.90
8965;DHT22;4517;49.020;12.066;2023-03-01T08:51:42;1.50;99.90
8965;DHT22;4517;49.020;12.066;2023-03-01T08:54:14;1.50;99.90
8965;DHT22;4517;49.020;12.066;2023-03-01T08:56:40;1.60;99.90
8965;DHT22;4517;49.020;12.066;2023-03-01T08:59:06;1.60;99.90
8965;DHT22;4517;49.020;12.066;2023-03-01T09:01:32;1.70;99.90
8965;DHT22;4517;49.020;12.066;2023-03-01T09:03:58;1.70;99.90
8965;DHT22;4517;49.020;12.066;2023-03-01T09:06:24;1.70;99.90
8965;DHT22;4517;49.020;12.066;2023-03-01T09:08:50;1.80;99.90
8965;DHT22;4517;49.020;12.066;2023-03-01T09:11:19;1.90;99.90
8965;DHT22;4517;49.020;12.066;2023-03-01T09:13:46;2.10;99.90
8965;DHT22;4517;49.020;12.066;2023-03-01T09:16:14;2.20;99.90
8965;DHT22;4517;49.020;12.066;2023-03-01T09:18:40;2.20;99.90
8965;DHT22;4517;49.020;12.066;2023-03-01T09:21:08;2.30;99.90
8965;DHT22;4517;49.020;12.066;2023-03-01T09:23:45;2.40;99.90
8965;DHT22;4517;49.020;12.066;2023-03-01T09:26:19;2.50;99.90
8965;DHT22;4517;49.020;12.066;2023-03-01T09:28:47;2.70;99.90
8965;DHT22;4517;49.020;12.066;2023-03-01T09:31:14;2.70;99.90
8965;DHT22;4517;49.020;12.066;2023-03-01T09:33:41;2.70;99.90
8965;DHT22;4517;49.020;12.066;2023-03-01T09:36:11;2.80;99.90
8965;DHT22;4517;49.020;12.066;2023-03-01T09:38:36;2.90;99.90
8965;DHT22;4517;49.020;12.066;2023-03-01T09:41:08;3.10;99.90
8965;DHT22;4517;49.020;12.066;2023-03-01T09:43:53;3.10;99.90
8965;DHT22;4517;49.020;12.066;2023-03-01T09:46:23;3.30;99.90
8965;DHT22;4517;49.020;12.066;2023-03-01T09:49:09;3.40;99.90
8965;DHT22;4517;49.020;12.066;2023-03-01T09:51:36;3.30;99.90
8965;DHT22;4517;49.020;12.066;2023-03-01T09:54:03;3.40;99.90
8965;DHT22;4517;49.020;12.066;2023-03-01T10:00:00;3.40;99.90
8965;DHT22;4517;49.020;12.066;2023-03-01T10:02:39;3.50;99.90
8965;DHT22;4517;49.020;12.066;2023-03-01T10:08:51;3.50;99.90
8965;DHT22;4517;49.020;12.066;2023-03-01T10:11:35;3.60;99.90
8965;DHT22;4517;49.020;12.066;2023-03-01T10:16:54;3.80;99.90
8965;DHT22;4517;49.020;12.066;2023-03-01T10:19:30;3.80;99.90
8965;DHT22;4517;49.020;12.066;2023-03-01T10:22:20;3.90;99.90
8965;DHT22;4517;49.020;12.066;2023-03-01T10:24:49;4.00;99.90
8965;DHT22;4517;49.020;12.066;2023-03-01T10:27:22;4.10;99.90
8965;DHT22;4517;49.020;12.066;2023-03-01T10:29:51;4.10;99.90
8965;DHT22;4517;49.020;12.066;2023-03-01T10:32:18;4.10;99.90
8965;DHT22;4517;49.020;12.066;2023-03-01T10:34:44;4.00;99.90
8965;DHT22;4517;49.020;12.066;2023-03-01T10:39:35;4.30;99.90
8965;DHT22;4517;49.020;12.066;2023-03-01T10:42:03;4.30;99.90
8965;DHT22;4517;49.020;12.066;2023-03-01T10:44:39;4.40;99.90
8965;DHT22;4517;49.020;12.066;2023-03-01T10:47:04;4.50;99.90
8965;DHT22;4517;49.020;12.066;2023-03-01T10:49:31;4.50;99.90
8965;DHT22;4517;49.020;12.066;2023-03-01T10:52:17;4.50;99.90
8965;DHT22;4517;49.020;12.066;2023-03-01T10:54:52;4.50;99.90
8965;DHT22;4517;49.020;12.066;2023-03-01T10:57:28;4.60;99.90
8965;DHT22;4517;49.020;12.066;2023-03-01T11:00:15;4.70;99.90
8965;DHT22;4517;49.020;12.066;2023-03-01T11:02:50;4.70;99.90
8965;DHT22;4517;49.020;12.066;2023-03-01T11:05:22;4.80;99.90
8965;DHT22;4517;49.020;12.066;2023-03-01T11:07:57;4.80;99.90
8965;DHT22;4517;49.020;12.066;2023-03-01T11:10:28;4.90;99.90
8965;DHT22;4517;49.020;12.066;2023-03-01T11:13:09;5.10;99.90
8965;DHT22;4517;49.020;12.066;2023-03-01T11:15:39;5.10;99.90
8965;DHT22;4517;49.020;12.066;2023-03-01T11:18:19;5.20;99.90
8965;DHT22;4517;49.020;12.066;2023-03-01T11:20:45;5.20;99.90
8965;DHT22;4517;49.020;12.066;2023-03-01T11:23:13;5.20;99.90
8965;DHT22;4517;49.020;12.066;2023-03-01T11:25:44;5.30;99.90
8965;DHT22;4517;49.020;12.066;2023-03-01T11:28:16;5.40;99.90
8965;DHT22;4517;49.020;12.066;2023-03-01T11:31:07;5.30;99.90
8965;DHT22;4517;49.020;12.066;2023-03-01T11:33:46;5.40;99.90
8965;DHT22;4517;49.020;12.066;2023-03-01T11:38:55;5.30;99.90
8965;DHT22;4517;49.020;12.066;2023-03-01T11:41:25;5.40;99.90
8965;DHT22;4517;49.020;12.066;2023-03-01T11:43:58;5.50;99.90
8965;DHT22;4517;49.020;12.066;2023-03-01T11:57:04;5.80;99.90
8965;DHT22;4517;49.020;12.066;2023-03-01T12:05:16;5.70;99.90
8965;DHT22;4517;49.020;12.066;2023-03-01T12:07:56;5.80;99.90
8965;DHT22;4517;49.020;12.066;2023-03-01T12:10:36;5.90;99.90
8965;DHT22;4517;49.020;12.066;2023-03-01T12:18:22;6.30;99.90
8965;DHT22;4517;49.020;12.066;2023-03-01T12:21:23;6.10;99.90
8965;DHT22;4517;49.020;12.066;2023-03-01T12:24:25;6.20;99.90
8965;DHT22;4517;49.020;12.066;2023-03-01T12:26:58;6.40;99.90
8965;DHT22;4517;49.020;12.066;2023-03-01T12:29:47;6.20;99.90
8965;DHT22;4517;49.020;12.066;2023-03-01T12:37:53;6.30;99.90
8965;DHT22;4517;49.020;12.066;2023-03-01T12:40:27;6.30;99.90
8965;DHT22;4517;49.020;12.066;2023-03-01T12:46:01;6.40;99.90
8965;DHT22;4517;49.020;12.066;2023-03-01T12:49:10;6.40;99.90
8965;DHT22;4517;49.020;12.066;2023-03-01T12:51:38;6.40;99.90
8965;DHT22;4517;49.020;12.066;2023-03-01T12:54:15;6.50;99.90
8965;DHT22;4517;49.020;12.066;2023-03-01T12:56:41;6.50;99.90
8965;DHT22;4517;49.020;12.066;2023-03-01T12:59:31;6.70;99.90
8965;DHT22;4517;49.020;12.066;2023-03-01T13:07:44;6.90;99.90
8965;DHT22;4517;49.020;12.066;2023-03-01T13:10:33;6.80;99.90
8965;DHT22;4517;49.020;12.066;2023-03-01T13:13:23;7.00;99.90
8965;DHT22;4517;49.020;12.066;2023-03-01T13:15:50;6.80;99.90
8965;DHT22;4517;49.020;12.066;2023-03-01T13:20:47;7.00;99.90
8965;DHT22;4517;49.020;12.066;2023-03-01T13:23:26;6.90;99.90
8965;DHT22;4517;49.020;12.066;2023-03-01T13:26:10;7.10;99.90
8965;DHT22;4517;49.020;12.066;2023-03-01T13:33:44;7.10;99.90
8965;DHT22;4517;49.020;12.066;2023-03-01T13:36:45;7.10;99.90
8965;DHT22;4517;49.020;12.066;2023-03-01T13:39:00;7.10;99.90
8965;DHT22;4517;49.020;12.066;2023-03-01T13:41:56;7.20;99.90
8965;DHT22;4517;49.020;12.066;2023-03-01T13:46:53;7.30;99.90
8965;DHT22;4517;49.020;12.066;2023-03-01T13:49:29;7.40;99.90
8965;DHT22;4517;49.020;12.066;2023-03-01T13:51:57;7.40;99.90
8965;DHT22;4517;49.020;12.066;2023-03-01T13:54:29;7.40;99.90
8965;DHT22;4517;49.020;12.066;2023-03-01T13:56:58;7.30;99.90
8965;DHT22;4517;49.020;12.066;2023-03-01T13:59:24;7.30;99.90
8965;DHT22;4517;49.020;12.066;2023-03-01T14:02:00;7.40;99.90
8965;DHT22;4517;49.020;12.066;2023-03-01T14:04:33;7.40;99.90
8965;DHT22;4517;49.020;12.066;2023-03-01T14:07:29;7.40;99.90
8965;DHT22;4517;49.020;12.066;2023-03-01T14:10:01;7.50;99.90
8965;DHT22;4517;49.020;12.066;2023-03-01T14:12:52;7.30;99.90
8965;DHT22;4517;49.020;12.066;2023-03-01T14:15:27;7.20;99.90
8965;DHT22;4517;49.020;12.066;2023-03-01T14:20:46;7.40;99.90
8965;DHT22;4517;49.020;12.066;2023-03-01T14:23:21;7.40;99.90
8965;DHT22;4517;49.020;12.066;2023-03-01T14:25:52;7.40;99.90
8965;DHT22;4517;49.020;12.066;2023-03-01T14:31:00;7.30;99.90
8965;DHT22;4517;49.020;12.066;2023-03-01T14:33:31;7.30;99.90
8965;DHT22;4517;49.020;12.066;2023-03-01T14:38:31;7.20;99.90
8965;DHT22;4517;49.020;12.066;2023-03-01T14:41:00;7.10;99.90
8965;DHT22;4517;49.020;12.066;2023-03-01T14:43:29;7.20;99.90
8965;DHT22;4517;49.020;12.066;2023-03-01T14:45:55;7.30;99.90
8965;DHT22;4517;49.020;12.066;2023-03-01T14:48:21;7.20;99.90
8965;DHT22;4517;49.020;12.066;2023-03-01T14:50:48;7.20;99.90
8965;DHT22;4517;49.020;12.066;2023-03-01T14:53:21;7.20;99.90
8965;DHT22;4517;49.020;12.066;2023-03-01T14:55:53;7.20;99.90
8965;DHT22;4517;49.020;12.066;2023-03-01T14:58:24;7.20;99.90
8965;DHT22;4517;49.020;12.066;2023-03-01T15:00:56;7.20;99.90
8965;DHT22;4517;49.020;12.066;2023-03-01T15:05:57;7.20;99.90
8965;DHT22;4517;49.020;12.066;2023-03-01T15:08:24;7.10;99.90
8965;DHT22;4517;49.020;12.066;2023-03-01T15:11:17;7.00;99.90
8965;DHT22;4517;49.020;12.066;2023-03-01T15:13:44;7.00;99.90
8965;DHT22;4517;49.020;12.066;2023-03-01T15:16:31;6.90;99.90
8965;DHT22;4517;49.020;12.066;2023-03-01T15:19:00;6.90;99.90
8965;DHT22;4517;49.020;12.066;2023-03-01T15:21:33;6.90;99.90
8965;DHT22;4517;49.020;12.066;2023-03-01T15:24:06;6.90;99.90
8965;DHT22;4517;49.020;12.066;2023-03-01T15:26:42;6.80;99.90
8965;DHT22;4517;49.020;12.066;2023-03-01T15:29:20;6.80;99.90
8965;DHT22;4517;49.020;12.066;2023-03-01T15:31:59;6.80;99.90
8965;DHT22;4517;49.020;12.066;2023-03-01T15:34:28;6.70;99.90
8965;DHT22;4517;49.020;12.066;2023-03-01T15:36:56;7.00;99.90
8965;DHT22;4517;49.020;12.066;2023-03-01T15:39:37;7.10;99.90
8965;DHT22;4517;49.020;12.066;2023-03-01T15:44:37;6.70;99.90
8965;DHT22;4517;49.020;12.066;2023-03-01T15:47:26;6.50;99.90
8965;DHT22;4517;49.020;12.066;2023-03-01T15:49:53;6.50;99.90
8965;DHT22;4517;49.020;12.066;2023-03-01T15:52:28;6.40;99.90
8965;DHT22;4517;49.020;12.066;2023-03-01T15:55:07;6.40;99.90
8965;DHT22;4517;49.020;12.066;2023-03-01T15:57:39;6.40;99.90
8965;DHT22;4517;49.020;12.066;2023-03-01T16:00:05;6.30;99.90
8965;DHT22;4517;49.020;12.066;2023-03-01T16:02:37;6.30;99.90
8965;DHT22;4517;49.020;12.066;2023-03-01T16:05:03;6.20;99.90
8965;DHT22;4517;49.020;12.066;2023-03-01T16:07:29;6.10;99.90
8965;DHT22;4517;49.020;12.066;2023-03-01T16:09:56;6.10;99.90
8965;DHT22;4517;49.020;12.066;2023-03-01T16:12:22;6.10;99.90
8965;DHT22;4517;49.020;12.066;2023-03-01T16:14:49;6.00;99.90
8965;DHT22;4517;49.020;12.066;2023-03-01T16:17:15;6.00;99.90
8965;DHT22;4517;49.020;12.066;2023-03-01T16:19:40;5.90;99.90
8965;DHT22;4517;49.020;12.066;2023-03-01T16:22:08;5.90;99.90
8965;DHT22;4517;49.020;12.066;2023-03-01T16:24:34;5.80;99.90
8965;DHT22;4517;49.020;12.066;2023-03-01T16:27:02;5.80;99.90
8965;DHT22;4517;49.020;12.066;2023-03-01T16:29:29;5.70;99.90
8965;DHT22;4517;49.020;12.066;2023-03-01T16:31:55;5.70;99.90
8965;DHT22;4517;49.020;12.066;2023-03-01T16:34:20;5.70;99.90
8965;DHT22;4517;49.020;12.066;2023-03-01T16:36:47;5.60;99.90
8965;DHT22;4517;49.020;12.066;2023-03-01T16:39:12;5.60;99.90
8965;DHT22;4517;49.020;12.066;2023-03-01T16:41:38;5.50;99.90
8965;DHT22;4517;49.020;12.066;2023-03-01T16:44:04;5.50;99.90
8965;DHT22;4517;49.020;12.066;2023-03-01T16:46:29;5.40;99.90
8965;DHT22;4517;49.020;12.066;2023-03-01T16:48:56;5.40;99.90
8965;DHT22;4517;49.020;12.066;2023-03-01T16:51:22;5.30;99.90
8965;DHT22;4517;49.020;12.066;2023-03-01T16:53:49;5.30;99.90
8965;DHT22;4517;49.020;12.066;2023-03-01T16:56:16;5.20;99.90
8965;DHT22;4517;49.020;12.066;2023-03-01T16:58:42;5.20;99.90
8965;DHT22;4517;49.020;12.066;2023-03-01T17:01:11;5.10;99.90
8965;DHT22;4517;49.020;12.066;2023-03-01T17:03:38;5.10;99.90
8965;DHT22;4517;49.020;12.066;2023-03-01T17:06:05;5.00;99.90
8965;DHT22;4517;49.020;12.066;2023-03-01T17:08:32;5.00;99.90
8965;DHT22;4517;49.020;12.066;2023-03-01T17:13:34;4.90;99.90
8965;DHT22;4517;49.020;12.066;2023-03-01T17:16:02;4.90;99.90
8965;DHT22;4517;49.020;12.066;2023-03-01T17:18:28;4.80;99.90
8965;DHT22;4517;49.020;12.066;2023-03-01T17:20:54;4.80;99.90
8965;DHT22;4517;49.020;12.066;2023-03-01T17:23:19;4.70;99.90
8965;DHT22;4517;49.020;12.066;2023-03-01T17:25:45;4.70;99.90
8965;DHT22;4517;49.020;12.066;2023-03-01T17:28:12;4.70;99.90
8965;DHT22;4517;49.020;12.066;2023-03-01T17:30:43;4.70;99.90
8965;DHT22;4517;49.020;12.066;2023-03-01T17:33:10;4.70;99.90
8965;DHT22;4517;49.020;12.066;2023-03-01T17:35:36;4.70;99.90
8965;DHT22;4517;49.020;12.066;2023-03-01T17:38:03;4.60;99.90
8965;DHT22;4517;49.020;12.066;2023-03-01T17:40:29;4.50;99.90
8965;DHT22;4517;49.020;12.066;2023-03-01T17:42:56;4.50;99.90